Time;durP1;ratioP1;P1;durP2;ratioP2;P2;SDS_P1;SDS_P2;PMS_P1;PMS_P2;Temp;Humidity;BMP_temperature;BMP_pressure;BME280_temperature;BME280_humidity;BME280_pressure;Samples;Min_cycle;Max_cycle;Signal;HPM_P1;HPM_P2
2022/05/14 00:01:38;;;;;;;14.45;4.57;;;;;;;11.38;70.33;101902.34;6402584;23;20009;-80
2022/05/14 00:04:10;;;;;;;16.30;4.80;;;;;;;11.43;70.79;101896.28;6402573;23;20009;-81
2022/05/14 00:06:42;;;;;;;16.55;4.93;;;;;;;11.52;70.52;101904.97;6403301;23;20690;-80
2022/05/14 00:09:13;;;;;;;13.67;4.73;;;;;;;11.35;70.83;101902.31;6402872;23;20012;-81
2022/05/14 00:14:34;;;;;;;16.73;4.93;;;;;;;11.36;71.19;101902.34;6404670;23;20045;-82
2022/05/14 00:17:06;;;;;;;11.63;4.90;;;;;;;11.36;71.26;101896.25;6409413;23;20006;-80
2022/05/14 00:19:40;;;;;;;16.57;5.87;;;;;;;11.20;71.94;101905.78;6405820;23;20013;-81
2022/05/14 00:22:11;;;;;;;11.40;5.30;;;;;;;11.05;72.63;101901.41;6405037;23;20079;-81
2022/05/14 00:24:43;;;;;;;10.63;4.97;;;;;;;11.06;72.71;101898.78;6406863;23;20006;-82
2022/05/14 00:27:14;;;;;;;10.90;5.00;;;;;;;11.01;72.92;101897.91;6406445;23;20016;-81
2022/05/14 00:29:45;;;;;;;16.90;5.33;;;;;;;11.02;73.16;101898.78;6404864;23;20047;-77
2022/05/14 00:32:17;;;;;;;15.07;5.10;;;;;;;11.00;73.55;101887.47;6405653;23;20056;-80
2022/05/14 00:34:48;;;;;;;10.27;5.00;;;;;;;10.90;73.82;101884.81;6403749;23;20005;-81
2022/05/14 00:37:20;;;;;;;17.47;5.37;;;;;;;10.95;73.48;101884.84;6404840;23;20005;-79
2022/05/14 00:39:51;;;;;;;20.43;5.73;;;;;;;10.93;73.52;101882.22;6403292;23;20379;-81
2022/05/14 00:42:22;;;;;;;12.17;4.87;;;;;;;10.83;73.79;101883.03;6403956;23;20009;-79
2022/05/14 00:44:54;;;;;;;13.70;5.73;;;;;;;10.84;73.77;101886.56;6403008;23;20482;-80
2022/05/14 00:47:28;;;;;;;12.30;4.80;;;;;;;10.79;74.02;101881.31;6402359;23;20010;-81
2022/05/14 00:50:00;;;;;;;11.60;4.95;;;;;;;10.79;74.45;101881.31;6402417;23;20266;-80
2022/05/14 00:52:32;;;;;;;17.57;6.10;;;;;;;10.63;74.84;101884.72;6401976;23;20010;-79
2022/05/14 00:55:05;;;;;;;12.68;5.05;;;;;;;10.54;75.23;101885.53;6402779;23;20012;-80
2022/05/14 00:57:40;;;;;;;18.65;5.05;;;;;;;10.46;75.26;101882.03;6402592;23;20005;-81
2022/05/14 01:00:16;;;;;;;16.40;5.78;;;;;;;10.37;75.71;101885.47;6402598;23;20006;-79
2022/05/14 01:02:48;;;;;;;9.48;4.68;;;;;;;10.45;75.16;101885.47;6402744;23;20018;-79
2022/05/14 01:05:20;;;;;;;12.73;5.63;;;;;;;10.42;75.37;101882.84;6402129;23;20009;-79
2022/05/14 01:07:54;;;;;;;;;;;;;;;10.44;73.36;101887.22;6403436;23;20006;-80
2022/05/14 01:10:31;;;;;;;12.48;4.72;;;;;;;10.45;74.79;101882.88;6402077;23;19912;-79
2022/05/14 01:13:03;;;;;;;12.70;4.60;;;;;;;10.35;74.92;101885.44;6402286;23;20511;-80
2022/05/14 01:16:02;;;;;;;15.57;5.13;;;;;;;10.28;74.98;101887.97;6402520;23;20436;-81
2022/05/14 01:18:37;;;;;;;12.80;5.70;;;;;;;10.18;75.69;101884.44;6398019;23;20442;-81
2022/05/14 01:21:14;;;;;;;10.70;4.60;;;;;;;10.24;75.30;101887.09;6404261;23;20005;-80
2022/05/14 01:26:43;;;;;;;14.25;4.28;;;;;;;10.04;75.21;101882.59;6403999;23;20017;-81
2022/05/14 01:29:21;;;;;;;11.25;4.55;;;;;;;10.12;75.00;101882.66;6404194;23;20002;-81
2022/05/14 01:31:54;;;;;;;10.68;4.13;;;;;;;9.98;75.10;101881.69;6404631;23;20017;-81
2022/05/14 01:34:32;;;;;;;11.57;4.53;;;;;;;10.10;74.66;101886.13;6404224;23;20063;-80
2022/05/14 01:37:03;;;;;;;12.02;4.75;;;;;;;9.89;74.91;101879.03;6403457;23;20067;-80
2022/05/14 01:39:35;;;;;;;9.07;4.07;;;;;;;9.96;75.02;101883.41;6403765;23;20017;-82
2022/05/14 01:42:06;;;;;;;13.07;4.97;;;;;;;9.97;74.44;101877.34;6403836;23;20083;-80
2022/05/14 01:44:38;;;;;;;7.83;3.43;;;;;;;9.84;74.58;101877.25;6403677;23;20177;-80
2022/05/14 01:47:12;;;;;;;10.23;4.00;;;;;;;9.87;74.50;101884.22;6404207;23;20013;-80
2022/05/14 01:49:45;;;;;;;11.40;3.70;;;;;;;9.83;74.45;101880.69;6404585;23;20709;-81
2022/05/14 01:52:16;;;;;;;11.02;4.28;;;;;;;9.80;74.19;101887.63;6403056;23;20012;-82
2022/05/14 01:54:47;;;;;;;13.33;3.63;;;;;;;9.82;74.08;101885.91;6402219;23;20005;-79
2022/05/14 01:57:19;;;;;;;18.47;3.97;;;;;;;9.78;74.03;101887.59;6403935;23;20009;-80
2022/05/14 01:59:50;;;;;;;11.30;4.17;;;;;;;9.84;73.87;101905.91;6402948;23;20040;-80
2022/05/14 02:02:22;;;;;;;9.17;3.43;;;;;;;9.74;74.05;101892.78;6403358;23;20036;-81
2022/05/14 02:04:53;;;;;;;14.13;3.70;;;;;;;9.75;73.94;101890.19;6402514;23;20012;-80
2022/05/14 02:07:25;;;;;;;9.73;4.03;;;;;;;9.71;74.22;101883.22;6402278;23;20499;-82
2022/05/14 02:09:56;;;;;;;15.20;4.00;;;;;;;9.77;73.86;101896.31;6402305;23;20421;-81
2022/05/14 02:12:27;;;;;;;16.03;3.83;;;;;;;9.70;73.99;101894.47;6402871;23;20002;-81
2022/05/14 02:14:59;;;;;;;13.50;4.77;;;;;;;9.65;74.33;101897.03;6402994;23;20118;-80
2022/05/14 02:17:30;;;;;;;13.27;3.90;;;;;;;9.62;74.19;101888.34;6402470;23;20037;-81
2022/05/14 02:20:03;;;;;;;11.60;4.23;;;;;;;9.66;74.66;101901.41;6402032;23;20013;-78
2022/05/14 02:22:36;;;;;;;11.25;3.90;;;;;;;9.67;74.01;101892.72;6402510;23;20013;-79
2022/05/14 02:25:09;;;;;;;11.27;3.58;;;;;;;9.55;74.72;101891.75;6402938;23;20012;-80
2022/05/14 02:27:40;;;;;;;12.00;4.35;;;;;;;9.48;74.56;101886.50;6404126;23;20012;-81
2022/05/14 02:30:13;;;;;;;9.83;3.73;;;;;;;9.46;74.89;101898.59;6404513;23;20078;-75
2022/05/14 02:32:45;;;;;;;12.85;3.63;;;;;;;9.42;75.14;101895.97;6404503;23;20015;-79
2022/05/14 02:35:16;;;;;;;12.73;3.65;;;;;;;9.46;74.94;101898.59;6404393;23;20586;-79
2022/05/14 02:37:47;;;;;;;12.80;3.97;;;;;;;9.37;74.93;101901.13;6404958;23;20041;-80
2022/05/14 02:40:19;;;;;;;12.90;4.93;;;;;;;9.40;75.23;101900.28;6404365;23;20006;-79
2022/05/14 02:42:52;;;;;;;12.53;3.80;;;;;;;9.31;75.50;101906.28;6404076;23;20005;-81
2022/05/14 02:45:23;;;;;;;;;;;;;;;9.34;74.11;101903.69;6404393;23;20012;-80
2022/05/14 02:47:54;;;;;;;13.60;4.00;;;;;;;9.27;75.42;101894.06;6403305;23;20274;-81
2022/05/14 02:50:26;;;;;;;10.57;3.90;;;;;;;9.21;75.68;101896.59;6403085;23;20017;-78
2022/05/14 02:52:57;;;;;;;10.73;3.87;;;;;;;9.20;76.00;101903.53;6403351;23;20016;-79
2022/05/14 02:55:30;;;;;;;9.03;3.70;;;;;;;9.13;75.92;101902.63;6403808;23;20005;-80
2022/05/14 02:58:01;;;;;;;9.90;4.65;;;;;;;9.16;76.09;101900.88;6403993;23;20420;-78
2022/05/14 03:00:33;;;;;;;13.73;4.37;;;;;;;9.10;76.23;101899.09;6403662;23;20031;-80
2022/05/14 03:03:04;;;;;;;15.30;3.97;;;;;;;9.13;76.10;101900.00;6403246;23;19997;-81
2022/05/14 03:05:35;;;;;;;7.67;3.17;;;;;;;9.08;76.18;101893.00;6352728;23;20529;-80
2022/05/14 03:08:07;;;;;;;11.70;3.57;;;;;;;9.08;76.83;101904.28;6403704;23;20055;-80
2022/05/14 03:10:38;;;;;;;13.00;3.97;;;;;;;9.02;76.57;101905.97;6403974;23;20012;-81
2022/05/14 03:13:10;;;;;;;9.40;4.10;;;;;;;9.06;76.53;101902.53;6403859;23;20056;-79
2022/05/14 03:15:41;;;;;;;13.83;4.00;;;;;;;9.00;76.68;101900.75;6403140;23;20010;-80
2022/05/14 03:18:12;;;;;;;10.57;4.10;;;;;;;8.98;76.66;101892.03;6376920;23;20461;-78
2022/05/14 03:20:44;;;;;;;9.47;4.03;;;;;;;8.94;77.07;101896.31;6403161;23;20006;-79
2022/05/14 03:23:16;;;;;;;8.27;3.40;;;;;;;8.86;77.04;101895.34;6403616;23;20016;-80
2022/05/14 03:25:47;;;;;;;10.63;3.77;;;;;;;8.87;77.68;101888.41;6403103;23;20275;-80
2022/05/14 03:28:18;;;;;;;10.57;3.50;;;;;;;8.81;77.33;101897.03;6403754;23;20383;-79
2022/05/14 03:30:50;;;;;;;8.83;3.80;;;;;;;8.80;77.63;101897.00;6404534;23;20032;-81
2022/05/14 03:33:21;;;;;;;8.83;4.67;;;;;;;8.79;77.96;101900.47;6403219;23;20017;-80
2022/05/14 03:35:53;;;;;;;10.83;4.33;;;;;;;8.74;77.83;101895.19;6403415;23;20092;-81
2022/05/14 03:38:24;;;;;;;10.70;4.97;;;;;;;8.79;77.91;101903.06;6376454;23;20114;-81
2022/05/14 03:40:56;;;;;;;10.93;4.00;;;;;;;8.75;78.02;101894.34;6402965;23;20009;-82
2022/05/14 03:43:27;;;;;;;9.97;4.37;;;;;;;8.73;77.95;101890.88;6403219;23;20012;-81
2022/05/14 03:45:58;;;;;;;12.53;4.17;;;;;;;8.72;78.00;101891.72;6403671;23;20032;-81
2022/05/14 03:48:30;;;;;;;10.83;4.93;;;;;;;8.68;78.46;101889.94;6351867;23;20009;-81
2022/05/14 03:51:02;;;;;;;11.83;4.37;;;;;;;8.65;78.24;101902.91;6407939;23;20009;-80
2022/05/14 03:53:36;;;;;;;12.27;4.25;;;;;;;8.68;78.30;101903.81;6402511;23;20052;-81
2022/05/14 03:56:09;;;;;;;13.70;4.00;;;;;;;8.61;78.88;101896.75;6403271;23;20451;-81
2022/05/14 03:58:40;;;;;;;10.50;3.83;;;;;;;8.64;78.71;101895.94;6403158;23;20013;-81
2022/05/14 04:01:12;;;;;;;11.13;5.33;;;;;;;8.61;78.91;101888.97;6412228;23;20068;-81
2022/05/14 04:03:45;;;;;;;10.77;4.32;;;;;;;8.59;78.99;101906.28;6405492;23;20006;-82
2022/05/14 04:06:16;;;;;;;8.38;3.92;;;;;;;8.63;78.76;101901.97;6403912;23;20060;-80
2022/05/14 04:08:50;;;;;;;13.77;4.73;;;;;;;8.57;79.17;101897.59;6403439;23;20017;-81
2022/05/14 04:11:22;;;;;;;12.48;4.50;;;;;;;8.59;79.47;101898.47;6403005;23;20012;-81
2022/05/14 04:13:53;;;;;;;15.87;4.70;;;;;;;8.63;79.29;101901.97;6403645;23;20005;-80
2022/05/14 04:16:25;;;;;;;10.40;3.77;;;;;;;8.58;79.48;101900.22;6403705;23;20021;-82
2022/05/14 04:18:57;;;;;;;10.93;4.03;;;;;;;8.60;79.40;101902.84;6403331;23;20319;-81
2022/05/14 04:21:28;;;;;;;13.83;5.40;;;;;;;8.62;79.67;101918.44;6379524;23;20014;-80
2022/05/14 04:24:00;;;;;;;12.33;4.77;;;;;;;8.53;80.10;101906.19;6402769;23;20449;-80
2022/05/14 04:26:31;;;;;;;10.13;4.68;;;;;;;8.57;80.15;101900.19;6403671;23;20009;-81
2022/05/14 04:29:03;;;;;;;11.03;4.27;;;;;;;8.53;80.49;101913.97;6357448;23;20017;-82
2022/05/14 04:31:35;;;;;;;12.60;5.50;;;;;;;8.55;80.26;101913.16;6408361;23;20044;-80
2022/05/14 04:34:07;;;;;;;9.95;4.35;;;;;;;8.60;80.40;101915.84;6408334;23;20065;-81
2022/05/14 04:36:39;;;;;;;11.43;4.60;;;;;;;8.61;80.60;101907.16;6408067;23;20095;-81
2022/05/14 04:39:10;;;;;;;17.60;5.03;;;;;;;8.63;80.58;101908.06;6407308;23;20067;-81
2022/05/14 04:41:42;;;;;;;14.57;5.03;;;;;;;8.71;80.46;101905.56;6380704;23;20391;-80
2022/05/14 04:44:13;;;;;;;12.33;5.20;;;;;;;8.66;80.46;101910.72;6407784;23;20016;-80
2022/05/14 04:46:45;;;;;;;13.80;4.67;;;;;;;8.71;80.85;101902.94;6406445;23;20013;-81
2022/05/14 04:49:16;;;;;;;18.53;5.70;;;;;;;8.72;80.49;101917.72;6408897;23;20002;-81
2022/05/14 04:51:48;;;;;;;10.07;4.40;;;;;;;8.77;80.73;101921.22;6407440;23;20020;-81
2022/05/14 04:54:20;;;;;;;12.37;5.50;;;;;;;8.78;80.69;101919.53;6405896;23;20010;-80
2022/05/14 04:56:51;;;;;;;11.43;5.23;;;;;;;8.84;80.54;101922.19;6404567;23;20263;-81
2022/05/14 04:59:23;;;;;;;14.50;5.30;;;;;;;8.88;80.63;101921.38;6402885;23;20009;-81
2022/05/14 05:04:46;;;;;;;11.45;4.82;;;;;;;8.95;80.75;101923.19;6403160;23;20021;-80
2022/05/14 05:07:18;;;;;;;12.80;6.13;;;;;;;8.97;80.85;101923.22;6404171;23;20064;-81
2022/05/14 05:09:50;;;;;;;14.27;6.53;;;;;;;8.99;80.98;101932.78;6404987;23;20017;-80
2022/05/14 05:12:21;;;;;;;11.27;6.00;;;;;;;9.07;81.10;101936.34;6409748;23;20405;-80
2022/05/14 05:14:52;;;;;;;13.17;5.83;;;;;;;9.11;80.88;101925.13;6402732;23;20018;-80
2022/05/14 05:17:24;;;;;;;14.43;5.90;;;;;;;9.21;80.79;101926.13;6376015;23;20446;-80
2022/05/14 05:19:55;;;;;;;12.73;5.97;;;;;;;9.25;80.96;101933.09;6402908;23;20053;-79
2022/05/14 05:22:26;;;;;;;12.37;6.33;;;;;;;9.28;80.86;101937.47;6403693;23;20009;-80
2022/05/14 05:24:58;;;;;;;14.07;5.53;;;;;;;9.39;80.87;101945.41;6404810;23;20012;-80
2022/05/14 05:27:29;;;;;;;16.53;7.33;;;;;;;9.41;80.73;101936.72;6402756;23;20005;-81
2022/05/14 05:30:04;;;;;;;17.97;6.40;;;;;;;9.45;80.57;101938.50;6376261;23;20013;-80
2022/05/14 05:32:36;;;;;;;15.80;6.30;;;;;;;9.57;80.72;101945.56;6402013;23;20013;-80
2022/05/14 05:35:08;;;;;;;20.97;7.53;;;;;;;9.62;80.67;101945.63;6402398;23;20006;-80
2022/05/14 05:37:39;;;;;;;20.47;7.40;;;;;;;9.71;80.63;101955.22;6402840;23;20324;-81
2022/05/14 05:40:11;;;;;;;17.30;7.07;;;;;;;9.75;80.42;101957.88;6406806;23;20005;-80
2022/05/14 05:42:44;;;;;;;14.15;7.15;;;;;;;9.89;80.22;101957.16;6404114;23;20339;-80
2022/05/14 05:45:16;;;;;;;13.57;6.95;;;;;;;9.96;80.05;101958.94;6402482;23;20020;-80
2022/05/14 05:47:48;;;;;;;18.52;7.18;;;;;;;9.94;80.55;101945.03;6403774;23;20041;-81
2022/05/14 05:50:19;;;;;;;20.40;7.97;;;;;;;10.08;80.39;101958.16;6404000;23;20006;-80
2022/05/14 05:52:51;;;;;;;23.50;7.80;;;;;;;10.16;80.55;101959.13;6403107;23;20394;-80
2022/05/14 05:58:17;;;;;;;17.13;8.32;;;;;;;10.33;80.29;101960.13;6402339;23;20018;-80
2022/05/14 06:00:49;;;;;;;18.17;7.95;;;;;;;10.40;80.01;101955.84;6404282;23;20006;-80
2022/05/14 06:03:20;;;;;;;21.40;9.47;;;;;;;10.48;80.22;101959.38;6405253;23;20153;-80
2022/05/14 06:05:52;;;;;;;16.33;8.87;;;;;;;10.61;80.38;101967.25;6379084;23;20005;-80
2022/05/14 06:08:25;;;;;;;26.13;10.67;;;;;;;10.67;79.95;101967.31;6405901;23;20006;-79
2022/05/14 06:10:56;;;;;;;16.85;8.70;;;;;;;10.75;80.17;101963.00;6404821;23;20002;-80
2022/05/14 06:13:27;;;;;;;32.50;9.80;;;;;;;10.84;80.16;101960.44;6404489;23;20102;-81
2022/05/14 06:16:00;;;;;;;23.60;9.20;;;;;;;10.93;80.02;101960.50;6405441;23;20037;-80
2022/05/14 06:18:32;;;;;;;19.00;9.02;;;;;;;11.04;80.04;101968.34;6408279;23;20014;-81
2022/05/14 06:21:06;;;;;;;20.83;8.75;;;;;;;11.15;79.63;101975.38;6405096;23;20064;-82
2022/05/14 06:23:40;;;;;;;24.40;9.57;;;;;;;11.18;79.69;101965.81;6379725;23;20012;-81
2022/05/14 14:15:56;;;;;;;19.60;6.45;;;;;;;39.16;15.22;101873.00;6373283;23;20042;-78
2022/05/14 14:18:28;;;;;;;13.68;5.85;;;;;;;37.08;16.00;101881.06;6370459;23;20017;-78
2022/05/14 14:21:04;;;;;;;14.65;5.95;;;;;;;37.20;17.00;101870.69;6369142;23;20016;-78
2022/05/14 14:23:51;;;;;;;14.35;5.72;;;;;;;37.73;17.23;101873.94;6349054;23;20010;-80
2022/05/14 14:26:23;;;;;;;22.67;6.00;;;;;;;36.49;17.03;101870.19;6371647;23;20006;-79
2022/05/14 14:28:54;;;;;;;46.40;7.20;;;;;;;35.38;18.18;101868.16;6350477;23;20313;-80
2022/05/14 14:31:34;;;;;;;15.63;5.15;;;;;;;34.56;19.74;101860.00;6373881;23;20782;-80
2022/05/14 14:34:08;;;;;;;12.43;5.72;;;;;;;35.29;18.43;101850.09;6374885;23;20020;-79
2022/05/14 14:36:40;;;;;;;14.20;5.18;;;;;;;36.58;16.61;101850.22;6376141;23;20045;-79
2022/05/14 14:39:12;;;;;;;14.85;5.63;;;;;;;37.20;16.29;101868.84;6379801;23;20017;-78
2022/05/14 14:41:43;;;;;;;12.45;6.03;;;;;;;37.08;15.79;101863.88;6370980;23;20013;-78
2022/05/14 14:44:15;;;;;;;13.77;5.18;;;;;;;37.52;15.94;101861.69;6369252;23;20009;-78
2022/05/14 14:46:46;;;;;;;11.43;4.80;;;;;;;39.07;15.68;101855.00;6370107;23;20025;-79
2022/05/14 14:49:17;;;;;;;13.82;5.28;;;;;;;40.20;13.47;101856.75;6370360;23;20013;-79
2022/05/14 14:51:50;;;;;;;15.00;5.90;;;;;;;41.61;14.77;101860.94;6387107;23;20064;-79
2022/05/14 14:54:21;;;;;;;11.38;5.60;;;;;;;41.66;13.34;101853.81;6437876;23;20001;-79
2022/05/14 14:56:52;;;;;;;10.25;5.25;;;;;;;39.84;13.40;101841.13;6438979;23;20019;-80
2022/05/14 14:59:24;;;;;;;12.93;5.68;;;;;;;39.15;14.27;101846.75;6437645;23;20020;-78
2022/05/14 15:02:02;;;;;;;11.88;5.28;;;;;;;38.57;15.69;101846.25;6437495;23;20001;-78
2022/05/14 15:04:42;;;;;;;12.30;5.93;;;;;;;39.06;15.18;101834.16;6438458;23;20001;-79
2022/05/14 15:07:14;;;;;;;12.50;5.30;;;;;;;40.10;15.36;101837.09;6436485;23;20005;-78
2022/05/14 15:09:46;;;;;;;14.88;6.20;;;;;;;38.01;15.14;101840.88;6411836;23;20823;-78
2022/05/14 15:12:17;;;;;;;13.65;5.40;;;;;;;35.84;16.95;101828.16;6437724;23;20104;-79
2022/05/14 15:14:48;;;;;;;15.55;6.82;;;;;;;35.17;18.65;101833.22;6438185;23;20009;-78
2022/05/14 15:17:20;;;;;;;13.75;5.50;;;;;;;36.31;17.79;101835.84;6436236;23;20110;-79
2022/05/14 15:19:57;;;;;;;12.50;6.03;;;;;;;36.98;16.83;101828.72;6435980;23;20020;-77
2022/05/14 15:22:29;;;;;;;15.05;5.82;;;;;;;36.18;16.84;101834.56;6386065;23;20423;-78
2022/05/14 15:25:01;;;;;;;20.48;5.65;;;;;;;37.53;18.26;101833.50;6411909;23;20001;-79
2022/05/14 15:27:32;;;;;;;11.02;4.88;;;;;;;38.39;16.37;101836.47;6437669;23;20449;-79
2022/05/14 15:30:09;;;;;;;14.95;6.13;;;;;;;37.36;16.33;101834.53;6437134;23;20019;-79
2022/05/14 15:32:42;;;;;;;13.57;6.47;;;;;;;37.42;15.90;101831.13;6439562;23;20389;-80
2022/05/14 15:35:14;;;;;;;12.25;6.03;;;;;;;37.18;16.54;101823.81;6433087;23;20012;-79
2022/05/14 15:37:46;;;;;;;16.67;6.38;;;;;;;36.51;16.46;101830.13;6436588;23;20075;-78
2022/05/14 15:40:23;;;;;;;15.80;6.07;;;;;;;36.42;16.79;101822.97;6434511;23;20020;-78
2022/05/14 15:43:00;;;;;;;13.45;5.63;;;;;;;36.12;17.16;101825.22;6433334;23;20005;-77
2022/05/14 15:45:40;;;;;;;15.70;5.82;;;;;;;36.03;17.47;101821.63;6434321;23;20338;-78
2022/05/14 15:48:23;;;;;;;11.65;5.32;;;;;;;36.11;16.96;101820.81;6431704;23;20352;-80
2022/05/14 15:50:54;;;;;;;14.45;5.25;;;;;;;37.13;16.62;101827.03;6434140;23;20016;-78
2022/05/14 15:53:26;;;;;;;16.13;5.00;;;;;;;37.36;16.59;101818.22;6434266;23;20005;-79
2022/05/14 15:55:57;;;;;;;14.32;4.82;;;;;;;37.73;16.63;101824.97;6434046;23;20095;-79
2022/05/14 15:58:30;;;;;;;15.73;6.05;;;;;;;37.37;16.22;101823.47;6436401;23;20422;-79
2022/05/14 16:01:03;;;;;;;13.80;5.63;;;;;;;37.07;16.87;101814.13;6435388;23;20009;-79
2022/05/14 16:03:34;;;;;;;12.63;5.80;;;;;;;37.37;16.22;101828.94;6434053;23;20001;-80
2022/05/14 16:06:07;;;;;;;19.10;5.72;;;;;;;37.47;16.48;101822.47;6435250;23;20039;-79
2022/05/14 16:08:39;;;;;;;17.27;7.30;;;;;;;36.52;16.56;101815.56;6435604;23;20388;-79
2022/05/14 16:16:54;;;;;;;14.63;5.32;;;;;;;36.17;17.48;101813.91;6433977;23;20013;-80
2022/05/14 16:19:26;;;;;;;13.10;5.20;;;;;;;37.38;16.38;101817.00;6433744;23;20008;-80
2022/05/14 16:21:57;;;;;;;16.15;6.85;;;;;;;36.15;17.27;101820.31;6434750;23;20009;-81
2022/05/14 16:24:29;;;;;;;22.02;6.97;;;;;;;36.93;18.16;101812.91;6434343;23;20016;-79
2022/05/14 16:27:00;;;;;;;15.63;4.78;;;;;;;37.31;16.65;101823.31;6433565;23;20001;-80
2022/05/14 16:30:09;;;;;;;13.68;5.10;;;;;;;37.09;17.52;101811.22;6434324;23;20376;-80
2022/05/14 16:32:23;;;;;;;14.98;4.72;;;;;;;36.73;16.86;101806.13;6434533;23;20445;-79
2022/05/14 16:34:55;;;;;;;16.92;5.70;;;;;;;37.30;16.86;101810.75;6433740;23;20088;-80
2022/05/14 16:37:26;;;;;;;14.00;5.30;;;;;;;36.68;17.30;101806.59;6433859;23;20080;-79
2022/05/14 16:39:58;;;;;;;12.32;5.50;;;;;;;36.77;17.09;101811.03;6432957;23;20091;-80
2022/05/14 16:42:29;;;;;;;15.13;5.53;;;;;;;37.16;17.23;101809.53;6432842;23;20040;-80
2022/05/14 16:45:01;;;;;;;12.98;6.00;;;;;;;36.68;17.72;101812.03;6432922;23;20867;-80
2022/05/14 16:47:33;;;;;;;12.13;5.38;;;;;;;36.53;17.86;101806.38;6433387;23;20079;-80
2022/05/14 16:50:08;;;;;;;13.27;5.18;;;;;;;36.05;17.74;101810.59;6433339;23;20009;-81
2022/05/14 16:52:40;;;;;;;16.20;6.45;;;;;;;35.41;17.55;101811.75;6407136;23;20339;-80
2022/05/14 16:55:13;;;;;;;14.05;5.80;;;;;;;35.92;17.95;101816.47;6434003;23;20009;-81
2022/05/14 16:57:45;;;;;;;14.15;6.20;;;;;;;35.48;17.96;101809.25;6433191;23;20013;-79
2022/05/14 17:00:22;;;;;;;18.05;6.45;;;;;;;34.73;17.98;101809.59;6437089;23;20005;-79
2022/05/14 17:02:54;;;;;;;11.65;5.22;;;;;;;34.08;18.61;101810.50;6441727;23;20296;-79
2022/05/14 17:05:26;;;;;;;15.05;5.00;;;;;;;34.06;18.91;101809.81;6433805;23;20016;-79
2022/05/14 17:07:57;;;;;;;13.50;4.97;;;;;;;34.67;18.92;101808.34;6432290;23;20056;-79
2022/05/14 17:10:34;;;;;;;13.30;5.45;;;;;;;34.92;19.24;101805.03;6434261;23;20024;-79
2022/05/14 17:13:06;;;;;;;13.05;4.60;;;;;;;34.70;18.75;101807.19;6433079;23;20565;-80
2022/05/14 17:15:40;;;;;;;14.25;5.28;;;;;;;34.87;19.94;101810.94;6433365;23;20015;-79
2022/05/14 17:18:17;;;;;;;16.10;5.22;;;;;;;34.27;18.91;101814.16;6432693;23;20096;-78
2022/05/14 17:20:50;;;;;;;12.32;5.68;;;;;;;34.15;19.00;101814.31;6432873;23;20037;-79
2022/05/14 17:23:22;;;;;;;17.52;5.47;;;;;;;34.25;19.35;101816.16;6433089;23;20354;-80
2022/05/14 17:25:55;;;;;;;17.02;5.32;;;;;;;33.30;19.81;101816.13;6432932;23;20005;-80
2022/05/14 17:28:27;;;;;;;11.20;5.07;;;;;;;32.71;20.10;101807.13;6433840;23;20147;-81
2022/05/14 17:30:58;;;;;;;16.48;4.82;;;;;;;32.31;20.39;101803.47;6436455;23;20041;-80
2022/05/14 17:33:30;;;;;;;14.68;4.78;;;;;;;32.17;21.17;101810.09;6436202;23;20012;-80
2022/05/14 17:36:01;;;;;;;18.55;5.40;;;;;;;32.42;22.40;101812.44;6439089;23;20001;-79
2022/05/14 17:41:23;;;;;;;15.55;5.03;;;;;;;31.03;22.59;101803.69;6439427;23;20030;-79
2022/05/14 17:43:54;;;;;;;12.82;5.22;;;;;;;30.09;23.85;101805.91;6435673;23;20001;-80
2022/05/14 17:46:26;;;;;;;16.73;5.15;;;;;;;29.50;24.57;101817.66;6435014;23;20015;-79
2022/05/14 17:48:58;;;;;;;14.20;4.95;;;;;;;28.67;25.68;101803.22;6434271;23;20009;-79
2022/05/14 17:51:29;;;;;;;13.70;4.70;;;;;;;27.84;26.46;101806.44;6435353;23;20080;-80
2022/05/14 17:54:01;;;;;;;18.25;5.55;;;;;;;27.95;27.34;101797.66;6429893;23;19997;-80
2022/05/14 17:56:32;;;;;;;;;;;;;;;28.65;24.89;101807.00;6438008;23;20009;-79
2022/05/14 17:59:03;;;;;;;11.63;4.20;;;;;;;27.88;26.89;101805.25;6436371;23;19912;-80
2022/05/14 18:01:35;;;;;;;;;;;;;;;28.83;25.02;101804.78;6436498;23;20091;-79
2022/05/14 18:04:07;;;;;;;18.77;5.40;;;;;;;27.95;27.14;101803.91;6437757;23;19919;-79
2022/05/14 18:06:39;;;;;;;15.40;5.15;;;;;;;28.29;27.76;101798.81;6433234;23;20005;-79
2022/05/14 18:09:11;;;;;;;10.98;4.22;;;;;;;27.67;27.44;101804.94;6435436;23;20020;-77
2022/05/14 18:11:43;;;;;;;;;;;;;;;28.99;25.23;101805.34;6436023;23;20356;-79
2022/05/14 18:14:22;;;;;;;;;;;;;;;28.82;25.40;101805.75;6434340;23;19916;-79
2022/05/14 18:16:55;;;;;;;12.20;4.53;;;;;;;27.01;28.40;101807.53;6435116;23;20389;-80
2022/05/14 18:19:30;;;;;;;11.00;4.43;;;;;;;26.20;29.19;101805.63;6434716;23;20009;-79
2022/05/14 18:22:02;;;;;;;12.30;4.35;;;;;;;26.08;29.56;101804.53;6433911;23;20004;-77
2022/05/14 18:24:35;;;;;;;13.65;5.03;;;;;;;25.85;30.17;101812.13;6434757;23;20008;-79
2022/05/14 18:27:12;;;;;;;12.75;4.55;;;;;;;25.59;30.98;101808.38;6435018;23;20280;-80
2022/05/14 18:29:48;;;;;;;14.43;4.65;;;;;;;25.28;30.94;101812.03;6435260;23;20009;-80
2022/05/14 18:32:51;;;;;;;15.07;5.13;;;;;;;25.45;30.81;101816.38;6435906;23;20719;-78
2022/05/14 18:35:31;;;;;;;16.92;4.90;;;;;;;25.31;32.16;101817.19;6434147;23;20330;-79
2022/05/14 18:38:07;;;;;;;16.05;5.47;;;;;;;24.90;32.55;101823.91;6435760;23;20012;-80
2022/05/14 18:40:40;;;;;;;13.10;4.72;;;;;;;24.86;32.30;101818.84;6435685;23;20038;-79
2022/05/14 18:43:14;;;;;;;11.45;4.47;;;;;;;25.22;32.63;101818.53;6436509;23;20445;-81
2022/05/14 18:45:46;;;;;;;13.88;4.15;;;;;;;24.68;32.92;101820.75;6436013;23;20005;-81
2022/05/14 18:48:17;;;;;;;15.50;4.90;;;;;;;24.17;34.11;101818.19;6438194;23;20005;-81
2022/05/14 18:50:50;;;;;;;12.35;4.53;;;;;;;23.94;34.11;101820.28;6436710;23;20239;-81
2022/05/14 18:53:21;;;;;;;11.68;4.60;;;;;;;23.92;35.98;101824.78;6436923;23;20059;-80
2022/05/14 18:55:53;;;;;;;15.77;5.03;;;;;;;23.75;35.78;101822.16;6430688;23;20016;-80
2022/05/14 18:58:24;;;;;;;14.93;4.63;;;;;;;23.28;35.94;101819.16;6408388;23;20435;-82
2022/05/14 19:00:57;;;;;;;15.40;5.00;;;;;;;23.10;36.78;101826.25;6434872;23;20020;-82
2022/05/14 19:03:28;;;;;;;11.50;4.78;;;;;;;23.16;37.17;101813.59;6434105;23;20012;-81
2022/05/14 19:08:50;;;;;;;16.88;4.80;;;;;;;22.52;38.36;101818.38;6434912;23;20048;-81
2022/05/14 19:11:23;;;;;;;20.87;5.90;;;;;;;22.36;38.21;101826.19;6434255;23;20045;-81
2022/05/14 19:13:54;;;;;;;16.08;5.18;;;;;;;22.28;39.03;101825.66;6434716;23;20005;-81
2022/05/14 19:16:25;;;;;;;15.43;4.90;;;;;;;22.23;39.26;101817.88;6434957;23;20079;-81
2022/05/14 19:18:57;;;;;;;14.73;4.80;;;;;;;21.95;39.34;101824.44;6434424;23;20800;-82
2022/05/14 19:21:29;;;;;;;14.23;5.80;;;;;;;21.79;40.32;101824.25;6434086;23;20004;-81
2022/05/14 19:24:00;;;;;;;17.10;6.30;;;;;;;21.69;41.02;101838.84;6433581;23;20013;-81
2022/05/14 19:26:32;;;;;;;16.73;5.80;;;;;;;21.40;41.16;101837.41;6433340;23;20005;-81
2022/05/14 19:29:05;;;;;;;20.63;5.63;;;;;;;21.31;41.38;101844.78;6432895;23;20538;-80
2022/05/14 19:31:36;;;;;;;16.73;5.72;;;;;;;21.10;41.75;101841.22;6432623;23;20231;-80
2022/05/14 19:34:08;;;;;;;14.80;5.27;;;;;;;21.12;42.08;101839.38;6433318;23;20422;-81
2022/05/14 19:36:44;;;;;;;18.70;5.73;;;;;;;20.83;42.81;101848.47;6432785;23;20108;-81
2022/05/14 19:39:22;;;;;;;14.70;5.70;;;;;;;20.93;42.70;101843.69;6433041;23;20009;-80
2022/05/14 19:42:02;;;;;;;17.48;6.47;;;;;;;20.73;43.33;101842.66;6433338;23;20001;-81
2022/05/14 19:44:46;;;;;;;18.00;6.15;;;;;;;20.87;43.04;101844.78;6436225;23;20087;-79
2022/05/14 19:47:18;;;;;;;15.25;5.57;;;;;;;20.66;43.92;101837.69;6433450;23;20012;-81
2022/05/14 19:49:50;;;;;;;18.25;5.78;;;;;;;20.55;44.15;101846.00;6433417;23;20338;-80
2022/05/14 19:52:23;;;;;;;17.05;6.43;;;;;;;20.47;44.46;101850.72;6433095;23;20020;-81
2022/05/14 19:54:55;;;;;;;19.25;5.80;;;;;;;20.63;45.22;101851.00;6434173;23;20068;-81
2022/05/14 19:57:27;;;;;;;15.30;5.63;;;;;;;20.34;45.44;101853.81;6434222;23;20029;-81
2022/05/14 19:59:58;;;;;;;15.98;6.13;;;;;;;20.19;45.85;101859.69;6433647;23;20006;-81